MET'MAP v2.0
soon released !

Expected late october,
this new version will be
more efficient, smarter,
and hosted on a brand new
server x3 powerfull...
...and still free !


Not compatible ?
Try the mobile version !

LOG IN : | Subscribe | Disclaimer | Who is Orbifly ? |
ICAO code :

TAF - EGXC RAF Coningsby - 14 Nov 2019 10:31 UTC
Data Sources :     NOAA   


- Airport Elevation : 25 ft
- IATA code : QCY
- No reported NOTAMs.


EGXC - RAF Coningsby

Latest METAR recorded : 2015/08/11 07:50 EGXC 110750Z 31007KT CAVOK 15/10 Q1019 BLU NOSIG
TAF AMD TAF EGXC
Valid from the 14 at 09:00 until the 15 at 03:00 UTC


140849Z 1409/1503 05012KT 9999 BKN025
BECMG 1409/1411 BKN020
PROB40
TEMPO 1409/1416 4000 RA BKN010
PROB30
TEMPO 1409/1410 05015G25KT
PROB30
TEMPO 1410/1414 3000 +RA
BECMG 1414/1417 SCT025
PROB30
TEMPO 1417/1503 SCT022

Source NOAA


MET'MAP, your aeronautical weather chart ! - Copyright ORBIFLY December 2007

Programming & Development : Alexandra Zaïnal
Co-Developer : Marc-Olivier Méhu
Technical & hardware support : Manuel Goepfert
Concept & Financing : Baudouin d'Aumeries